createdAt,value
2022-10-05T00:00:30.973Z,100916.34
2022-10-05T00:02:59.331Z,100911.44
2022-10-05T00:05:30.772Z,100922.81
2022-10-05T00:08:05.899Z,100921.88
2022-10-05T00:10:34.430Z,100928.88
2022-10-05T00:13:03.843Z,100928.13
2022-10-05T00:15:31.576Z,100923.78
2022-10-05T00:17:59.663Z,100917.06
2022-10-05T00:20:27.737Z,100915.66
2022-10-05T00:22:58.577Z,100920.97
2022-10-05T00:25:26.642Z,100911.00
2022-10-05T00:27:58.598Z,100919.72
2022-10-05T00:30:33.471Z,100916.97
2022-10-05T00:33:01.252Z,100917.91
2022-10-05T00:35:30.827Z,100917.06
2022-10-05T00:37:58.523Z,100914.69
2022-10-05T00:40:36.622Z,100906.63
2022-10-05T00:43:30.587Z,100905.22
2022-10-05T00:46:07.772Z,100898.22
2022-10-05T00:48:42.099Z,100897.63
2022-10-05T00:51:22.941Z,100885.50
2022-10-05T00:53:59.171Z,100871.88
2022-10-05T00:56:47.597Z,100869.53
2022-10-05T00:59:26.287Z,100873.69
2022-10-05T01:02:00.500Z,100878.25
2022-10-05T01:04:36.472Z,100868.16
2022-10-05T01:07:14.203Z,100861.59
2022-10-05T01:09:51.041Z,100859.91
2022-10-05T01:12:27.126Z,100869.69
2022-10-05T01:15:03.482Z,100876.78
2022-10-05T01:17:38.323Z,100874.44
2022-10-05T01:20:28.292Z,100871.88
2022-10-05T01:23:21.226Z,100879.94
2022-10-05T01:26:04.089Z,100871.22
2022-10-05T01:28:39.052Z,100870.38
2022-10-05T01:31:14.374Z,100874.19
2022-10-05T01:33:50.521Z,100877.91
2022-10-05T01:36:27.516Z,100867.47
2022-10-05T01:39:03.950Z,100867.56
2022-10-05T01:41:39.508Z,100874.78
2022-10-05T01:44:14.473Z,100877.84
2022-10-05T01:46:46.970Z,100879.09
2022-10-05T01:49:29.613Z,100874.91
2022-10-05T01:52:08.444Z,100884.69
2022-10-05T01:54:45.450Z,100888.09
2022-10-05T01:57:38.475Z,100889.25
2022-10-05T02:00:10.156Z,100898.06
2022-10-05T02:02:42.502Z,100896.56
2022-10-05T02:05:15.198Z,100896.09
2022-10-05T02:07:48.459Z,100894.19
2022-10-05T02:10:22.947Z,100877.41
2022-10-05T02:12:55.502Z,100869.72
2022-10-05T02:15:30.824Z,100870.78
2022-10-05T02:18:05.492Z,100869.19
2022-10-05T02:20:36.164Z,100863.78
2022-10-05T02:23:07.410Z,100853.06
2022-10-05T02:25:39.112Z,100856.38
2022-10-05T02:28:12.500Z,100852.88
2022-10-05T02:30:46.114Z,100849.38
2022-10-05T02:33:20.376Z,100841.50
2022-10-05T02:35:48.156Z,100844.41
2022-10-05T02:38:23.165Z,100843.88
2022-10-05T02:40:58.710Z,100844.25
2022-10-05T02:43:40.163Z,100842.53
2022-10-05T02:46:22.836Z,100842.94
2022-10-05T02:49:03.658Z,100836.31
2022-10-05T02:51:38.817Z,100842.56
2022-10-05T02:54:15.914Z,100850.72
2022-10-05T02:56:53.602Z,100840.50
2022-10-05T02:59:28.044Z,100846.56
2022-10-05T03:02:02.881Z,100841.25
2022-10-05T03:04:40.524Z,100831.50
2022-10-05T03:07:15.351Z,100831.75
2022-10-05T03:09:50.401Z,100824.59
2022-10-05T03:12:35.666Z,100818.03
2022-10-05T03:15:18.114Z,100805.25
2022-10-05T03:17:55.041Z,100807.88
2022-10-05T03:20:35.212Z,100796.47
2022-10-05T03:23:05.469Z,100799.38
2022-10-05T03:25:53.217Z,100798.94
2022-10-05T03:28:27.833Z,100802.03
2022-10-05T03:31:03.950Z,100802.47
2022-10-05T03:33:42.852Z,100803.88
2022-10-05T03:36:22.623Z,100805.38
2022-10-05T03:38:59.672Z,100806.03
2022-10-05T03:41:37.298Z,100815.50
2022-10-05T03:44:20.785Z,100817.97
2022-10-05T03:47:04.450Z,100825.72
2022-10-05T03:49:44.347Z,100832.75
2022-10-05T03:52:17.278Z,100829.34
2022-10-05T03:54:46.976Z,100835.91
2022-10-05T03:57:16.753Z,100833.44
2022-10-05T03:59:51.524Z,100828.34
2022-10-05T04:02:22.666Z,100830.53
2022-10-05T04:04:54.400Z,100827.03
2022-10-05T04:07:28.772Z,100835.22
2022-10-05T04:09:57.026Z,100827.34
2022-10-05T04:12:26.409Z,100830.94
2022-10-05T04:14:55.607Z,100831.06
2022-10-05T04:17:28.529Z,100828.41
2022-10-05T04:20:00.057Z,100838.88
2022-10-05T04:22:31.753Z,100830.19
2022-10-05T04:25:02.633Z,100838.34
2022-10-05T04:27:33.168Z,100835.03
2022-10-05T04:30:04.465Z,100840.44
2022-10-05T04:32:37.650Z,100852.97
2022-10-05T04:35:18.585Z,100842.34
2022-10-05T04:37:51.400Z,100859.59
2022-10-05T04:40:28.044Z,100845.84
2022-10-05T04:43:00.808Z,100852.13
2022-10-05T04:45:33.754Z,100846.59
2022-10-05T04:48:12.237Z,100838.75
2022-10-05T04:50:53.618Z,100852.03
2022-10-05T04:53:25.738Z,100852.66
2022-10-05T04:55:57.039Z,100848.63
2022-10-05T04:58:30.439Z,100856.94
2022-10-05T05:01:07.613Z,100855.25
2022-10-05T05:03:40.995Z,100854.19
2022-10-05T05:06:18.904Z,100852.19
2022-10-05T05:08:57.010Z,100857.34
2022-10-05T05:11:29.235Z,100859.41
2022-10-05T05:14:17.979Z,100862.81
2022-10-05T05:16:46.973Z,100871.53
2022-10-05T05:19:29.579Z,100874.41
2022-10-05T05:22:02.922Z,100875.41
2022-10-05T05:24:36.485Z,100875.81
2022-10-05T05:27:11.835Z,100878.47
2022-10-05T05:29:46.992Z,100883.69
2022-10-05T05:32:20.375Z,100880.94
2022-10-05T05:34:54.877Z,100886.69
2022-10-05T05:37:29.572Z,100903.22
2022-10-05T05:40:04.609Z,100910.28
2022-10-05T05:42:38.503Z,100912.47
2022-10-05T05:45:09.309Z,100911.44
2022-10-05T05:47:39.248Z,100905.28
2022-10-05T05:50:17.770Z,100904.91
2022-10-05T05:52:48.015Z,100906.31
2022-10-05T05:55:19.390Z,100908.69
2022-10-05T05:57:51.406Z,100918.47
2022-10-05T06:00:21.940Z,100906.78
2022-10-05T06:02:54.339Z,100910.97
2022-10-05T06:05:28.280Z,100901.38
2022-10-05T06:07:58.908Z,100905.84
2022-10-05T06:10:30.432Z,100902.13
2022-10-05T06:13:01.791Z,100903.63
2022-10-05T06:15:33.594Z,100903.00
2022-10-05T06:18:03.945Z,100910.66
2022-10-05T06:20:36.611Z,100911.59
2022-10-05T06:23:08.132Z,100914.06
2022-10-05T06:25:40.564Z,100918.03
2022-10-05T06:28:10.665Z,100910.06
2022-10-05T06:30:44.649Z,100908.06
2022-10-05T06:33:18.790Z,100907.66
2022-10-05T06:35:53.660Z,100908.22
2022-10-05T06:38:29.597Z,100905.00
2022-10-05T06:41:04.313Z,100902.78
2022-10-05T06:43:37.966Z,100904.28
2022-10-05T06:46:08.540Z,100893.31
2022-10-05T06:48:42.879Z,100904.41
2022-10-05T06:51:12.796Z,100905.03
2022-10-05T06:53:44.421Z,100903.88
2022-10-05T06:56:16.493Z,100911.66
2022-10-05T06:58:49.468Z,100914.00
2022-10-05T07:01:21.061Z,100920.63
2022-10-05T07:03:58.794Z,100915.75
2022-10-05T07:06:30.000Z,100917.47
2022-10-05T07:09:07.501Z,100920.88
2022-10-05T07:11:54.296Z,100914.28
2022-10-05T07:14:31.475Z,100918.22
2022-10-05T07:17:14.709Z,100914.50
2022-10-05T07:19:47.197Z,100912.91
2022-10-05T07:22:29.384Z,100914.41
2022-10-05T07:25:03.412Z,100913.44
2022-10-05T07:27:34.056Z,100914.41
2022-10-05T07:30:05.487Z,100916.97
2022-10-05T07:32:36.225Z,100916.75
2022-10-05T07:35:09.155Z,100911.44
2022-10-05T07:37:57.839Z,100915.25
2022-10-05T07:40:28.484Z,100918.88
2022-10-05T07:42:59.885Z,100912.69
2022-10-05T07:45:30.212Z,100915.88
2022-10-05T07:47:58.482Z,100919.72
2022-10-05T07:50:30.470Z,100922.28
2022-10-05T07:52:59.152Z,100916.75
2022-10-05T07:55:33.749Z,100921.84
2022-10-05T07:58:08.516Z,100926.88
2022-10-05T08:00:45.610Z,100920.47
2022-10-05T08:03:17.362Z,100924.63
2022-10-05T08:05:46.923Z,100928.41
2022-10-05T08:08:19.837Z,100926.19
2022-10-05T08:10:53.045Z,100919.53
2022-10-05T08:13:23.675Z,100921.75
2022-10-05T08:15:53.811Z,100917.28
2022-10-05T08:18:27.261Z,100917.94
2022-10-05T08:20:56.869Z,100921.81
2022-10-05T08:23:26.790Z,100920.91
2022-10-05T08:26:09.161Z,100909.69
2022-10-05T08:28:40.553Z,100906.09
2022-10-05T08:31:14.671Z,100913.31
2022-10-05T08:33:50.272Z,100920.97
2022-10-05T08:36:21.832Z,100910.66
2022-10-05T08:38:51.148Z,100903.19
2022-10-05T08:41:36.061Z,100915.31
2022-10-05T08:44:15.454Z,100907.69
2022-10-05T08:47:00.943Z,100902.03
2022-10-05T08:49:46.204Z,100909.78
2022-10-05T08:52:23.620Z,100907.63
2022-10-05T08:55:05.549Z,100914.06
2022-10-05T08:57:48.351Z,100902.69
2022-10-05T09:00:20.095Z,100902.22
2022-10-05T09:03:06.850Z,100897.13
2022-10-05T09:05:47.520Z,100895.94
2022-10-05T09:08:28.284Z,100888.38
2022-10-05T09:11:08.173Z,100885.81
2022-10-05T09:13:53.630Z,100884.00
2022-10-05T09:16:39.053Z,100886.63
2022-10-05T09:19:25.267Z,100886.94
2022-10-05T09:21:57.713Z,100883.13
2022-10-05T09:24:28.740Z,100878.47
2022-10-05T09:27:01.135Z,100885.28
2022-10-05T09:29:44.740Z,100892.34
2022-10-05T09:32:27.891Z,100891.03
2022-10-05T09:35:05.421Z,100885.50
2022-10-05T09:37:45.962Z,100885.94
2022-10-05T09:40:44.635Z,100881.53
2022-10-05T09:43:18.925Z,100870.63
2022-10-05T09:45:58.534Z,100869.88
2022-10-05T09:48:44.048Z,100871.38
2022-10-05T09:51:35.609Z,100865.56
2022-10-05T09:54:22.212Z,100856.56
2022-10-05T09:57:08.274Z,100853.78
2022-10-05T09:59:51.576Z,100861.53
2022-10-05T10:02:27.612Z,100861.22
2022-10-05T10:05:08.683Z,100849.41
2022-10-05T10:07:50.532Z,100847.69
2022-10-05T10:10:36.649Z,100843.53
2022-10-05T10:13:16.625Z,100843.06
2022-10-05T10:15:58.911Z,100833.81
2022-10-05T10:18:38.166Z,100829.63
2022-10-05T10:21:20.314Z,100828.50
2022-10-05T10:24:00.478Z,100835.28
2022-10-05T10:26:47.608Z,100827.88
2022-10-05T10:29:37.436Z,100830.56
2022-10-05T10:32:13.433Z,100822.25
2022-10-05T10:34:55.144Z,100819.91
2022-10-05T10:37:39.396Z,100824.22
2022-10-05T10:40:27.098Z,100821.63
2022-10-05T10:43:15.464Z,100817.00
2022-10-05T10:45:49.889Z,100808.38
2022-10-05T10:48:32.305Z,100813.22
2022-10-05T10:51:13.703Z,100812.44
2022-10-05T10:54:02.618Z,100801.22
2022-10-05T10:56:35.429Z,100802.31
2022-10-05T10:59:20.622Z,100802.28
2022-10-05T11:01:59.164Z,100801.94
2022-10-05T11:04:45.431Z,100793.34
2022-10-05T11:07:24.167Z,100794.25
2022-10-05T11:10:03.879Z,100786.41
2022-10-05T11:12:52.414Z,100790.31
2022-10-05T11:15:33.126Z,100787.28
2022-10-05T11:18:07.742Z,100774.34
2022-10-05T11:20:43.992Z,100774.91
2022-10-05T11:23:28.906Z,100769.72
2022-10-05T11:26:05.393Z,100776.13
2022-10-05T11:28:46.374Z,100769.13
2022-10-05T11:31:36.679Z,100760.53
2022-10-05T11:34:22.210Z,100765.78
2022-10-05T11:37:04.660Z,100756.47
2022-10-05T11:39:42.272Z,100754.34
2022-10-05T11:42:23.852Z,100746.09
2022-10-05T11:45:06.696Z,100746.47
2022-10-05T11:47:38.843Z,100746.91
2022-10-05T11:50:12.595Z,100747.81
2022-10-05T11:52:44.929Z,100733.91
2022-10-05T11:55:24.573Z,100725.53
2022-10-05T11:57:54.834Z,100729.56
2022-10-05T12:00:23.644Z,100722.06
2022-10-05T12:03:06.561Z,100712.47
2022-10-05T12:05:37.363Z,100715.44
2022-10-05T12:08:16.433Z,100713.78
2022-10-05T12:10:47.641Z,100701.41
2022-10-05T12:13:22.694Z,100699.53
2022-10-05T12:15:54.700Z,100698.31
2022-10-05T12:18:24.882Z,100695.44
2022-10-05T12:20:56.186Z,100696.06
2022-10-05T12:23:30.306Z,100688.09
2022-10-05T12:26:01.952Z,100688.13
2022-10-05T12:28:34.514Z,100687.50
2022-10-05T12:31:12.991Z,100685.19
2022-10-05T12:33:47.123Z,100686.00
2022-10-05T12:36:16.409Z,100689.16
2022-10-05T12:38:47.708Z,100676.78
2022-10-05T12:41:19.346Z,100685.81
2022-10-05T12:43:55.953Z,100678.22
2022-10-05T12:46:29.707Z,100674.25
2022-10-05T12:49:08.705Z,100669.84
2022-10-05T12:51:40.037Z,100660.34
2022-10-05T12:54:14.433Z,100656.75
2022-10-05T12:56:44.850Z,100656.34
2022-10-05T12:59:20.225Z,100661.13
2022-10-05T13:01:52.667Z,100656.00
2022-10-05T13:04:28.714Z,100651.16
2022-10-05T13:07:06.786Z,100646.69
2022-10-05T13:09:39.405Z,100644.81
2022-10-05T13:12:10.135Z,100644.41
2022-10-05T13:14:45.742Z,100649.66
2022-10-05T13:17:18.354Z,100641.47
2022-10-05T13:19:47.673Z,100636.56
2022-10-05T13:22:20.773Z,100635.06
2022-10-05T13:24:55.431Z,100639.38
2022-10-05T13:27:24.841Z,100643.31
2022-10-05T13:29:56.368Z,100627.75
2022-10-05T13:32:25.126Z,100631.41
2022-10-05T13:34:56.288Z,100621.84
2022-10-05T13:37:31.726Z,100620.53
2022-10-05T13:40:06.149Z,100616.94
2022-10-05T13:42:36.750Z,100620.94
2022-10-05T13:45:11.563Z,100620.41
2022-10-05T13:47:44.420Z,100616.72
2022-10-05T13:50:18.175Z,100616.13
2022-10-05T13:52:51.169Z,100611.94
2022-10-05T13:55:23.722Z,100616.09
2022-10-05T13:57:55.534Z,100613.44
2022-10-05T14:00:26.588Z,100621.84
2022-10-05T14:02:56.471Z,100611.59
2022-10-05T14:05:25.034Z,100617.28
2022-10-05T14:07:54.414Z,100611.34
2022-10-05T14:10:33.916Z,100622.84
2022-10-05T14:13:02.612Z,100612.50
2022-10-05T14:15:32.193Z,100614.69
2022-10-05T14:18:00.326Z,100611.13
2022-10-05T14:20:31.091Z,100609.44
2022-10-05T14:23:00.653Z,100614.47
2022-10-05T14:25:28.767Z,100605.88
2022-10-05T14:28:02.603Z,100606.97
2022-10-05T14:30:31.070Z,100610.72
2022-10-05T14:33:01.410Z,100601.44
2022-10-05T14:35:30.398Z,100601.97
2022-10-05T14:37:59.995Z,100596.19
2022-10-05T14:40:29.824Z,100595.38
2022-10-05T14:42:58.490Z,100592.03
2022-10-05T14:45:30.487Z,100596.25
2022-10-05T14:48:08.081Z,100597.19
2022-10-05T14:50:49.066Z,100591.22
2022-10-05T14:53:18.262Z,100594.66
2022-10-05T14:56:06.661Z,100586.25
2022-10-05T14:58:43.000Z,100595.31
2022-10-05T15:01:15.869Z,100590.28
2022-10-05T15:03:47.703Z,100601.03
2022-10-05T15:06:19.818Z,100593.91
2022-10-05T15:08:57.825Z,100588.28
2022-10-05T15:11:32.521Z,100593.97
2022-10-05T15:14:01.055Z,100597.78
2022-10-05T15:16:31.643Z,100589.22
2022-10-05T15:19:04.437Z,100588.63
2022-10-05T15:21:42.200Z,100581.53
2022-10-05T15:24:13.178Z,100578.88
2022-10-05T15:26:47.283Z,100583.09
2022-10-05T15:29:21.725Z,100570.28
2022-10-05T15:31:55.417Z,100566.97
2022-10-05T15:34:29.497Z,100574.09
2022-10-05T15:37:00.924Z,100570.53
2022-10-05T15:39:35.070Z,100573.72
2022-10-05T15:42:04.572Z,100574.13
2022-10-05T15:44:40.732Z,100571.63
2022-10-05T15:47:14.420Z,100572.28
2022-10-05T15:49:47.122Z,100562.41
2022-10-05T15:52:19.067Z,100568.06
2022-10-05T15:55:02.657Z,100567.63
2022-10-05T15:57:35.893Z,100558.63
2022-10-05T16:00:05.915Z,100561.09
2022-10-05T16:02:40.557Z,100556.09
2022-10-05T16:05:16.980Z,100560.41
2022-10-05T16:08:04.216Z,100555.34
2022-10-05T16:10:34.665Z,100557.78
2022-10-05T16:13:10.527Z,100568.16
2022-10-05T16:15:42.689Z,100566.53
2022-10-05T16:18:31.258Z,100580.44
2022-10-05T16:21:05.297Z,100580.94
2022-10-05T16:23:36.487Z,100585.16
2022-10-05T16:26:13.235Z,100589.22
2022-10-05T16:28:47.449Z,100594.00
2022-10-05T16:31:18.883Z,100590.72
2022-10-05T16:33:54.504Z,100603.66
2022-10-05T16:36:26.435Z,100606.41
2022-10-05T16:38:55.866Z,100607.72
2022-10-05T16:41:29.290Z,100611.25
2022-10-05T16:44:03.105Z,100606.53
2022-10-05T16:46:33.494Z,100606.50
2022-10-05T16:49:07.386Z,100604.63
2022-10-05T16:51:41.343Z,100602.38
2022-10-05T16:54:17.452Z,100607.44
2022-10-05T16:56:47.765Z,100612.22
2022-10-05T16:59:33.530Z,100620.59
2022-10-05T17:02:06.503Z,100625.13
2022-10-05T17:04:41.852Z,100626.34
2022-10-05T17:07:20.837Z,100641.81
2022-10-05T17:10:05.627Z,100644.91
2022-10-05T17:12:40.922Z,100641.81
2022-10-05T17:15:15.841Z,100651.97
2022-10-05T17:17:57.720Z,100650.47
2022-10-05T17:20:41.587Z,100655.22
2022-10-05T17:23:23.847Z,100660.84
2022-10-05T17:25:55.829Z,100666.28
2022-10-05T17:28:25.488Z,100665.94
2022-10-05T17:31:09.462Z,100673.38
2022-10-05T17:33:58.073Z,100681.84
2022-10-05T17:36:37.462Z,100689.78
2022-10-05T17:39:12.972Z,100694.19
2022-10-05T17:41:40.572Z,100698.75
2022-10-05T17:44:21.544Z,100692.16
2022-10-05T17:46:49.971Z,100705.53
2022-10-05T17:49:39.446Z,100706.22
2022-10-05T17:52:39.069Z,100705.03
2022-10-05T17:55:27.326Z,100709.94
2022-10-05T17:57:58.590Z,100722.75
2022-10-05T18:00:55.990Z,100718.72
2022-10-05T18:03:37.782Z,100723.75
2022-10-05T18:06:38.324Z,100726.97
2022-10-05T18:09:17.458Z,100726.63
2022-10-05T18:11:45.935Z,100730.50
2022-10-05T18:14:19.109Z,100738.44
2022-10-05T18:16:59.809Z,100737.22
2022-10-05T18:19:32.383Z,100745.50
2022-10-05T18:22:01.190Z,100743.47
2022-10-05T18:24:56.000Z,100747.84
2022-10-05T18:27:31.734Z,100751.38
2022-10-05T18:30:05.151Z,100754.75
2022-10-05T18:32:45.319Z,100755.41
2022-10-05T18:35:15.810Z,100763.97
2022-10-05T18:37:47.715Z,100767.69
2022-10-05T18:40:25.639Z,100776.09
2022-10-05T18:42:57.183Z,100774.59
2022-10-05T18:45:27.095Z,100773.22
2022-10-05T18:48:00.293Z,100771.34
2022-10-05T18:50:30.162Z,100776.91
2022-10-05T18:53:11.789Z,100783.78
2022-10-05T18:55:44.372Z,100789.66
2022-10-05T18:58:17.638Z,100788.31
2022-10-05T19:01:00.144Z,100790.31
2022-10-05T19:03:30.424Z,100784.44
2022-10-05T19:06:04.487Z,100783.59
2022-10-05T19:08:37.829Z,100795.75
2022-10-05T19:11:14.393Z,100800.97
2022-10-05T19:13:46.800Z,100804.00
2022-10-05T19:16:24.789Z,100806.38
2022-10-05T19:19:04.993Z,100808.25
2022-10-05T19:21:39.365Z,100807.56
2022-10-05T19:24:17.495Z,100811.41
2022-10-05T19:27:04.554Z,100813.28
2022-10-05T19:29:43.955Z,100812.75
2022-10-05T19:32:18.552Z,100815.09
2022-10-05T19:34:56.074Z,100812.91
2022-10-05T19:37:31.172Z,100819.44
2022-10-05T19:40:07.244Z,100827.84
2022-10-05T19:42:47.353Z,100826.50
2022-10-05T19:45:19.118Z,100828.81
2022-10-05T19:47:53.191Z,100835.50
2022-10-05T19:50:22.220Z,100832.25
2022-10-05T19:52:51.576Z,100838.97
2022-10-05T19:55:26.463Z,100845.69
2022-10-05T19:57:56.786Z,100861.00
2022-10-05T20:00:25.666Z,100862.47
2022-10-05T20:02:53.358Z,100869.03
2022-10-05T20:05:20.904Z,100869.19
2022-10-05T20:07:48.433Z,100874.72
2022-10-05T20:10:24.421Z,100874.88
2022-10-05T20:12:53.180Z,100883.44
2022-10-05T20:15:40.633Z,100884.91
2022-10-05T20:18:47.440Z,100882.28
2022-10-05T20:21:29.781Z,100886.63
2022-10-05T20:24:10.635Z,100894.16
2022-10-05T20:26:56.145Z,100899.31
2022-10-05T20:29:23.698Z,100894.69
2022-10-05T20:31:52.618Z,100903.53
2022-10-05T20:34:21.620Z,100899.44
2022-10-05T20:36:49.674Z,100908.00
2022-10-05T20:39:18.259Z,100917.66
2022-10-05T20:41:46.202Z,100926.31
2022-10-05T20:44:14.197Z,100923.88
2022-10-05T20:46:42.134Z,100931.44
2022-10-05T20:49:11.539Z,100930.47
2022-10-05T20:51:40.094Z,100939.00
2022-10-05T20:54:08.302Z,100934.38
2022-10-05T20:56:36.074Z,100938.63
2022-10-05T20:59:03.625Z,100939.09
2022-10-05T21:01:31.881Z,100948.44
2022-10-05T21:03:59.857Z,100946.34
2022-10-05T21:06:29.432Z,100962.75
2022-10-05T21:08:56.982Z,100970.28
2022-10-05T21:11:24.550Z,100975.94
2022-10-05T21:13:53.709Z,100980.75
2022-10-05T21:16:23.376Z,100982.03
2022-10-05T21:18:50.923Z,100986.69
2022-10-05T21:21:18.761Z,100988.38
2022-10-05T21:23:48.628Z,100995.31
2022-10-05T21:26:16.367Z,100987.81
2022-10-05T21:28:44.092Z,100983.28
2022-10-05T21:31:11.756Z,100986.75
2022-10-05T21:33:39.285Z,100992.38
2022-10-05T21:36:06.882Z,100995.16
2022-10-05T21:38:34.411Z,100998.72
2022-10-05T21:41:03.275Z,101008.19
2022-10-05T21:43:31.143Z,101000.81
2022-10-05T21:45:59.059Z,100999.34
2022-10-05T21:48:27.583Z,101004.59
2022-10-05T21:50:55.392Z,101010.84
2022-10-05T21:53:25.982Z,101011.22
2022-10-05T21:55:54.079Z,101016.91
2022-10-05T21:58:23.698Z,101011.97
2022-10-05T22:00:51.283Z,101011.56
2022-10-05T22:03:18.793Z,101016.09
2022-10-05T22:05:46.498Z,101017.34
2022-10-05T22:08:19.893Z,101024.88
2022-10-05T22:10:47.391Z,101023.50
2022-10-05T22:13:14.903Z,101038.19
2022-10-05T22:15:43.780Z,101028.03
2022-10-05T22:18:16.421Z,101038.25
2022-10-05T22:20:44.049Z,101042.38
2022-10-05T22:23:12.340Z,101039.13
2022-10-05T22:25:39.930Z,101043.22
2022-10-05T22:28:09.757Z,101033.75
2022-10-05T22:30:38.366Z,101044.81
2022-10-05T22:33:08.580Z,101041.56
2022-10-05T22:35:36.353Z,101038.44
2022-10-05T22:38:04.364Z,101038.75
2022-10-05T22:40:32.019Z,101035.19
2022-10-05T22:42:59.635Z,101043.44
2022-10-05T22:45:32.314Z,101043.44
2022-10-05T22:48:00.222Z,101046.13
2022-10-05T22:50:29.246Z,101043.56
2022-10-05T22:52:56.750Z,101053.47
2022-10-05T22:55:24.554Z,101046.38
2022-10-05T22:57:52.039Z,101043.00
2022-10-05T23:00:24.687Z,101047.22
2022-10-05T23:02:56.303Z,101041.84
2022-10-05T23:05:23.857Z,101038.19
2022-10-05T23:07:52.843Z,101044.53
2022-10-05T23:10:20.814Z,101050.78
2022-10-05T23:12:59.677Z,101062.50
2022-10-05T23:15:28.215Z,101053.75
2022-10-05T23:17:56.165Z,101061.94
2022-10-05T23:20:24.522Z,101070.44
2022-10-05T23:22:53.778Z,101069.16
2022-10-05T23:25:22.188Z,101067.75
2022-10-05T23:27:49.758Z,101065.38
2022-10-05T23:30:17.344Z,101075.81
2022-10-05T23:32:45.531Z,101083.16
2022-10-05T23:35:13.868Z,101091.53
2022-10-05T23:37:41.754Z,101097.03
2022-10-05T23:40:12.931Z,101099.84
2022-10-05T23:42:40.776Z,101098.16
2022-10-05T23:45:09.112Z,101091.38
2022-10-05T23:47:36.651Z,101097.84
2022-10-05T23:50:04.609Z,101097.09
2022-10-05T23:52:32.153Z,101100.78
2022-10-05T23:54:59.651Z,101100.97
2022-10-05T23:57:28.506Z,101108.75
2022-10-05T23:59:56.357Z,101105.06
